Time;durP1;ratioP1;P1;durP2;ratioP2;P2;SDS_P1;SDS_P2;PMS_P1;PMS_P2;Temp;Humidity;BMP_temperature;BMP_pressure;BME280_temperature;BME280_humidity;BME280_pressure;Samples;Min_cycle;Max_cycle;Signal;HPM_P1;HPM_P2
2022/12/31 00:02:05;;;;;;;9.23;4.95;;;;;;;6.61;66.23;93130.00;2057954;69;20496;-73
2022/12/31 00:04:31;;;;;;;8.30;4.15;;;;;;;6.58;65.10;93131.88;2057852;69;20269;-75
2022/12/31 00:06:56;;;;;;;5.13;3.40;;;;;;;6.80;63.80;93127.34;2057779;69;20142;-73
2022/12/31 00:09:22;;;;;;;5.10;3.20;;;;;;;6.76;63.94;93121.44;2057471;69;20153;-74
2022/12/31 00:11:47;;;;;;;5.70;3.10;;;;;;;6.90;63.88;93130.22;2057740;69;20650;-73
2022/12/31 00:14:13;;;;;;;4.03;2.45;;;;;;;6.96;64.11;93129.97;2057678;69;20252;-73
2022/12/31 00:16:41;;;;;;;4.35;2.88;;;;;;;6.89;64.20;93131.56;2057736;69;20148;-73
2022/12/31 00:19:08;;;;;;;4.18;2.40;;;;;;;6.73;65.34;93125.38;2057659;69;20158;-73
2022/12/31 00:21:35;;;;;;;8.15;3.10;;;;;;;6.81;64.50;93120.44;2057771;69;20270;-73
2022/12/31 00:24:01;;;;;;;6.75;3.17;;;;;;;6.81;64.36;93114.09;2057646;69;20153;-72
2022/12/31 00:26:30;;;;;;;5.30;2.75;;;;;;;6.68;66.18;93131.22;2057716;69;20286;-72
2022/12/31 00:28:57;;;;;;;4.82;2.60;;;;;;;6.75;65.07;93122.00;2057732;69;20220;-73
2022/12/31 00:31:29;;;;;;;8.25;3.60;;;;;;;6.76;64.58;93124.22;2057271;69;20252;-73
2022/12/31 00:33:55;;;;;;;6.03;3.35;;;;;;;6.75;63.64;93128.34;2057188;69;20170;-73
2022/12/31 00:36:27;;;;;;;6.63;3.40;;;;;;;6.84;64.15;93140.94;2057760;69;20553;-72
2022/12/31 00:38:54;;;;;;;6.28;3.08;;;;;;;6.95;63.81;93148.09;2057757;69;20156;-77
2022/12/31 00:41:21;;;;;;;4.55;2.75;;;;;;;6.97;64.74;93151.06;2057699;69;20138;-73
2022/12/31 00:43:47;;;;;;;4.13;2.67;;;;;;;7.04;64.47;93156.56;2057658;69;20146;-73
2022/12/31 00:46:13;;;;;;;4.72;2.95;;;;;;;7.05;63.84;93152.44;2057612;69;20146;-73
2022/12/31 00:48:39;;;;;;;7.25;3.75;;;;;;;7.09;62.58;93160.44;2057831;69;20146;-74
2022/12/31 00:51:07;;;;;;;5.30;3.30;;;;;;;7.10;63.01;93159.09;2057184;69;20184;-74
2022/12/31 00:53:34;;;;;;;6.25;3.78;;;;;;;7.02;62.87;93162.00;2057482;69;20268;-73
2022/12/31 00:56:10;;;;;;;7.03;3.80;;;;;;;7.05;61.52;93165.69;2057539;69;20138;-72
2022/12/31 00:58:36;;;;;;;5.70;3.08;;;;;;;6.99;62.97;93154.03;2057675;69;20137;-72
2022/12/31 01:01:15;;;;;;;6.53;3.70;;;;;;;6.95;62.02;93167.69;2057657;69;20153;-72
2022/12/31 01:03:41;;;;;;;6.30;3.22;;;;;;;6.97;62.90;93168.59;2056989;69;20159;-72
2022/12/31 01:06:08;;;;;;;5.60;3.25;;;;;;;6.99;62.38;93165.22;2057503;69;20524;-72
2022/12/31 01:08:34;;;;;;;5.07;3.25;;;;;;;7.04;62.62;93164.22;2057583;69;20140;-72
2022/12/31 01:11:18;;;;;;;6.75;3.13;;;;;;;7.09;62.30;93174.44;2057562;69;20141;-73
2022/12/31 01:13:52;;;;;;;4.25;2.58;;;;;;;7.02;64.04;93178.81;2056898;69;20142;-73
2022/12/31 01:16:20;;;;;;;5.45;3.00;;;;;;;7.07;64.60;93186.22;2056437;69;20146;-74
2022/12/31 01:18:46;;;;;;;5.55;3.38;;;;;;;6.83;63.67;93198.22;2053384;69;20134;-73
2022/12/31 01:21:12;;;;;;;7.75;3.63;;;;;;;7.02;63.83;93198.41;2054005;69;20185;-74
2022/12/31 01:23:39;;;;;;;5.72;3.08;;;;;;;7.01;64.48;93201.75;2054037;69;20284;-71
2022/12/31 01:26:07;;;;;;;4.20;2.40;;;;;;;6.99;65.16;93193.22;2054044;69;20158;-73
2022/12/31 01:28:33;;;;;;;5.80;3.63;;;;;;;6.90;64.29;93207.84;2054354;69;20237;-72
2022/12/31 01:31:03;;;;;;;5.88;3.38;;;;;;;6.96;64.32;93216.75;2054027;69;20144;-72
2022/12/31 01:33:29;;;;;;;5.30;3.35;;;;;;;7.03;63.69;93218.75;2053924;69;20221;-73
2022/12/31 01:36:04;;;;;;;6.78;3.40;;;;;;;7.11;63.34;93225.00;2054165;69;20165;-74
2022/12/31 01:38:30;;;;;;;8.90;3.03;;;;;;;7.07;64.17;93216.28;2053550;69;20485;-75
2022/12/31 01:40:55;;;;;;;5.88;3.70;;;;;;;6.80;65.35;93232.97;2054120;69;20586;-72
2022/12/31 01:43:21;;;;;;;4.32;2.90;;;;;;;6.90;64.62;93224.66;2054271;69;20157;-73
2022/12/31 01:45:52;;;;;;;5.38;2.70;;;;;;;6.93;64.04;93212.31;2054381;69;20164;-73
2022/12/31 01:48:25;;;;;;;6.47;3.00;;;;;;;7.11;63.47;93225.00;2053896;69;20164;-73
2022/12/31 01:50:53;;;;;;;4.15;2.60;;;;;;;7.13;63.17;93209.09;2053830;69;20142;-73
2022/12/31 01:53:20;;;;;;;3.75;2.20;;;;;;;7.15;64.08;93211.34;2054038;69;20192;-71
2022/12/31 01:55:53;;;;;;;5.47;2.72;;;;;;;7.22;63.31;93220.97;2053876;69;20634;-73
2022/12/31 01:58:43;;;;;;;4.97;3.03;;;;;;;7.29;63.38;93208.94;2054135;69;20590;-73
2022/12/31 02:01:13;;;;;;;4.20;2.75;;;;;;;7.26;63.43;93221.28;2052833;70;20250;-73
2022/12/31 02:03:40;;;;;;;4.75;2.65;;;;;;;7.34;63.79;93225.50;2053911;69;20141;-74
2022/12/31 02:06:19;;;;;;;3.85;2.47;;;;;;;7.21;63.55;93231.44;2054098;69;20150;-74
2022/12/31 02:08:45;;;;;;;5.53;2.45;;;;;;;7.35;63.10;93243.78;2053709;70;20149;-76
2022/12/31 02:11:24;;;;;;;4.22;2.35;;;;;;;7.39;64.05;93249.72;2055064;69;20157;-70
2022/12/31 02:13:53;;;;;;;4.28;2.40;;;;;;;7.42;63.13;93249.88;2055180;69;20222;-72
2022/12/31 02:16:41;;;;;;;4.25;2.58;;;;;;;7.25;63.33;93259.75;2054801;70;20166;-73
2022/12/31 02:19:45;;;;;;;3.38;2.38;;;;;;;7.27;61.24;93276.72;2054353;69;20136;-76
2022/12/31 02:22:21;;;;;;;4.15;2.60;;;;;;;7.46;61.40;93281.00;2054069;70;20150;-72
2022/12/31 02:24:53;;;;;;;4.43;2.70;;;;;;;7.57;60.98;93281.25;2053989;69;20156;-73
2022/12/31 02:27:22;;;;;;;3.60;2.42;;;;;;;7.52;61.14;93310.28;2054662;69;20165;-74
2022/12/31 02:29:59;;;;;;;3.92;2.40;;;;;;;7.52;62.00;93315.88;2054483;69;20662;-75
2022/12/31 02:32:30;;;;;;;5.03;2.55;;;;;;;7.45;62.34;93325.09;2054580;69;20610;-73
2022/12/31 02:35:04;;;;;;;3.63;2.53;;;;;;;7.44;61.37;93320.06;2054474;69;20146;-73
2022/12/31 02:37:32;;;;;;;3.67;2.63;;;;;;;7.29;62.17;93302.09;2054752;69;20191;-76
2022/12/31 02:39:59;;;;;;;3.78;2.40;;;;;;;7.07;63.37;93286.28;2054333;69;20177;-71
2022/12/31 02:42:24;;;;;;;4.05;2.50;;;;;;;7.17;63.87;93270.31;2054556;69;20149;-72
2022/12/31 02:44:51;;;;;;;3.78;2.42;;;;;;;7.50;62.80;93251.25;2054564;69;20255;-73
2022/12/31 02:47:42;;;;;;;3.50;2.17;;;;;;;7.57;63.37;93246.91;2054441;69;20228;-72
2022/12/31 02:50:23;;;;;;;2.63;1.77;;;;;;;7.48;65.87;93255.97;2054571;69;20146;-74
2022/12/31 02:53:23;;;;;;;2.47;1.70;;;;;;;7.37;65.54;93271.94;2054705;69;20248;-76
2022/12/31 02:56:00;;;;;;;3.83;1.73;;;;;;;7.30;65.12;93275.59;2057840;69;20294;-75
2022/12/31 03:04:33;;;;;;;5.30;2.05;;;;;;;7.36;64.55;93298.47;2057849;69;20165;-71
2022/12/31 03:07:10;;;;;;;3.33;2.10;;;;;;;7.33;64.91;93302.44;2057818;69;20596;-72
2022/12/31 03:09:37;;;;;;;3.90;2.00;;;;;;;7.12;65.46;93296.47;2057894;69;20245;-73
2022/12/31 03:14:51;;;;;;;4.43;2.50;;;;;;;7.07;64.75;93300.25;2057508;69;20177;-71
2022/12/31 03:17:17;;;;;;;3.88;2.30;;;;;;;7.29;64.69;93282.50;2057072;69;20169;-72
2022/12/31 03:22:27;;;;;;;4.45;2.00;;;;;;;7.10;65.90;93285.88;2057811;69;20237;-71
2022/12/31 03:27:44;;;;;;;2.40;1.95;;;;;;;7.22;66.09;93296.56;2057759;69;20149;-71
2022/12/31 03:30:11;;;;;;;3.17;2.15;;;;;;;7.27;65.19;93287.19;2057784;69;20645;-71
2022/12/31 03:32:38;;;;;;;3.20;2.15;;;;;;;7.25;64.33;93287.03;2057537;69;20237;-74
2022/12/31 03:35:05;;;;;;;2.90;1.98;;;;;;;7.34;63.99;93275.19;2057891;69;20142;-73
2022/12/31 03:37:30;;;;;;;3.38;2.08;;;;;;;7.27;64.54;93261.97;2057694;69;20153;-72
2022/12/31 03:39:57;;;;;;;4.85;2.10;;;;;;;7.47;62.24;93274.84;2057812;69;20141;-73
2022/12/31 03:42:22;;;;;;;2.83;1.95;;;;;;;7.52;63.60;93271.06;2057845;69;20154;-72
2022/12/31 03:44:48;;;;;;;3.15;1.80;;;;;;;7.42;65.05;93280.69;2057498;69;20177;-72
2022/12/31 03:47:13;;;;;;;2.75;1.77;;;;;;;7.37;64.37;93266.34;2057661;69;20233;-72
2022/12/31 03:49:40;;;;;;;4.15;1.83;;;;;;;7.38;63.67;93251.03;2058067;69;20177;-72
2022/12/31 03:52:07;;;;;;;2.78;1.77;;;;;;;7.42;63.51;93261.81;2054701;69;20157;-73
2022/12/31 03:54:33;;;;;;;3.20;2.25;;;;;;;7.39;62.78;93277.72;2057810;69;20145;-75
2022/12/31 03:56:59;;;;;;;3.13;2.15;;;;;;;7.46;62.71;93270.53;2058138;69;20174;-70
2022/12/31 03:59:24;;;;;;;2.42;1.85;;;;;;;7.39;63.40;93274.91;2058024;69;20636;-73
2022/12/31 04:01:50;;;;;;;3.22;1.98;;;;;;;7.14;64.25;93279.84;2058065;69;20153;-73
2022/12/31 04:04:19;;;;;;;3.58;2.15;;;;;;;7.29;63.88;93281.75;2058146;69;20153;-73
2022/12/31 04:06:45;;;;;;;5.18;2.08;;;;;;;7.33;64.70;93279.28;2058045;69;20512;-73
2022/12/31 04:09:16;;;;;;;3.00;2.00;;;;;;;7.23;64.49;93262.38;2057798;69;20600;-73
2022/12/31 04:11:42;;;;;;;3.92;2.10;;;;;;;7.16;65.51;93276.47;2057712;69;20157;-74
2022/12/31 04:14:08;;;;;;;3.88;2.00;;;;;;;7.24;65.33;93286.28;2057642;69;20254;-76
2022/12/31 04:16:33;;;;;;;3.67;2.30;;;;;;;7.13;64.88;93278.38;2057125;69;20242;-73
2022/12/31 04:18:59;;;;;;;8.07;4.18;;;;;;;6.90;66.15;93263.84;2057856;69;20142;-74
2022/12/31 04:21:25;;;;;;;2.50;1.88;;;;;;;6.93;66.66;93255.03;2057621;69;20570;-73
2022/12/31 04:23:50;;;;;;;2.55;1.55;;;;;;;7.17;65.32;93270.31;2057078;69;20137;-74
2022/12/31 04:26:16;;;;;;;2.75;1.30;;;;;;;7.11;65.93;93264.94;2057634;69;20153;-74
2022/12/31 04:28:41;;;;;;;1.38;1.20;;;;;;;7.07;66.35;93272.28;2057680;69;20146;-74
2022/12/31 04:31:07;;;;;;;5.80;3.40;;;;;;;6.49;67.37;93285.63;2057616;69;20207;-75
2022/12/31 04:33:33;;;;;;;10.85;6.20;;;;;;;6.79;66.30;93287.44;2057610;69;20154;-74
2022/12/31 04:36:06;;;;;;;6.93;4.57;;;;;;;6.77;66.34;93284.47;2057582;69;20197;-73
2022/12/31 04:38:32;;;;;;;5.85;4.10;;;;;;;6.80;66.04;93286.13;2057603;69;20156;-73
2022/12/31 04:41:16;;;;;;;5.80;3.25;;;;;;;6.35;67.59;93297.09;2057502;69;20165;-73
2022/12/31 04:43:48;;;;;;;5.88;3.17;;;;;;;6.60;66.70;93313.91;2057691;69;20212;-73
2022/12/31 04:46:15;;;;;;;5.70;3.20;;;;;;;6.67;66.36;93312.34;2057608;69;20145;-74
2022/12/31 04:48:41;;;;;;;6.38;3.45;;;;;;;6.34;66.98;93306.03;2057398;69;20153;-73
2022/12/31 04:51:10;;;;;;;7.75;3.70;;;;;;;6.47;67.30;93308.56;2057448;69;20253;-74
2022/12/31 04:53:36;;;;;;;6.75;4.32;;;;;;;6.15;68.11;93317.72;2057641;69;20189;-74
2022/12/31 04:56:02;;;;;;;8.95;4.75;;;;;;;6.34;67.13;93320.78;2057553;69;20268;-73
2022/12/31 04:58:28;;;;;;;6.22;4.50;;;;;;;6.22;66.67;93325.31;2057723;69;20233;-71
2022/12/31 05:00:55;;;;;;;7.97;5.03;;;;;;;6.26;67.11;93322.88;2057796;69;20153;-71
2022/12/31 05:03:22;;;;;;;7.57;5.55;;;;;;;6.26;67.12;93316.53;2057677;69;20497;-71
2022/12/31 05:05:48;;;;;;;5.43;3.63;;;;;;;6.28;66.59;93316.72;2057642;69;20160;-75
2022/12/31 05:08:15;;;;;;;6.68;3.88;;;;;;;6.17;67.30;93303.91;2057664;69;20267;-71
2022/12/31 05:10:47;;;;;;;5.53;4.00;;;;;;;5.98;68.08;93314.81;2057554;69;20133;-72
2022/12/31 05:13:13;;;;;;;5.38;3.75;;;;;;;5.99;67.42;93336.59;2057701;69;20149;-72
2022/12/31 05:15:39;;;;;;;6.65;3.40;;;;;;;5.95;67.75;93336.25;2057793;69;20267;-73
2022/12/31 05:18:05;;;;;;;5.32;3.30;;;;;;;6.06;67.56;93340.69;2057772;69;20619;-72
2022/12/31 05:20:31;;;;;;;4.75;3.10;;;;;;;6.07;66.92;93347.75;2057533;69;20591;-72
2022/12/31 05:22:57;;;;;;;8.73;3.22;;;;;;;6.01;67.38;93358.41;2057797;69;20161;-72
2022/12/31 05:25:23;;;;;;;5.50;3.00;;;;;;;5.96;67.93;93360.13;2057488;69;20280;-72
2022/12/31 05:27:49;;;;;;;9.27;5.82;;;;;;;5.77;68.25;93354.94;2057796;69;20320;-72
2022/12/31 05:30:14;;;;;;;11.98;6.97;;;;;;;5.60;69.65;93368.78;2057558;69;20173;-72
2022/12/31 05:32:40;;;;;;;12.45;6.95;;;;;;;5.74;68.81;93369.28;2057636;69;20232;-72
2022/12/31 05:35:06;;;;;;;12.68;7.53;;;;;;;5.63;69.80;93352.91;2057592;69;20145;-72
2022/12/31 05:37:32;;;;;;;10.63;6.45;;;;;;;5.77;69.57;93370.94;2057621;69;20597;-72
2022/12/31 05:39:58;;;;;;;7.25;4.82;;;;;;;5.65;69.09;93339.88;2057460;69;20149;-72
2022/12/31 05:42:25;;;;;;;5.40;3.53;;;;;;;5.83;67.98;93363.13;2057653;69;20153;-72
2022/12/31 05:44:50;;;;;;;10.63;6.75;;;;;;;5.49;69.83;93377.53;2057605;69;20153;-74
2022/12/31 05:47:17;;;;;;;16.15;9.13;;;;;;;5.57;70.04;93375.47;2057504;69;20229;-72
2022/12/31 05:49:42;;;;;;;12.95;7.13;;;;;;;5.62;70.20;93394.06;2057532;69;20299;-73
2022/12/31 05:52:08;;;;;;;14.65;7.55;;;;;;;5.69;69.61;93375.81;2057645;69;20674;-73
2022/12/31 05:54:35;;;;;;;11.68;5.30;;;;;;;5.61;70.33;93354.22;2057549;69;20246;-74
2022/12/31 05:57:01;;;;;;;10.38;5.10;;;;;;;5.63;69.94;93381.59;2057634;69;20202;-73
2022/12/31 05:59:27;;;;;;;6.30;3.80;;;;;;;5.54;71.06;93382.94;2057456;69;20181;-72
2022/12/31 06:01:52;;;;;;;20.25;11.55;;;;;;;5.35;72.11;93391.69;2057958;69;20253;-73
2022/12/31 06:04:18;;;;;;;19.20;10.98;;;;;;;5.49;71.24;93383.84;2058033;69;20173;-74
2022/12/31 06:06:44;;;;;;;20.73;12.13;;;;;;;5.66;69.93;93376.94;2054651;69;20138;-73
2022/12/31 06:09:11;;;;;;;24.38;11.32;;;;;;;5.51;71.23;93386.09;2058035;69;20165;-74
2022/12/31 06:11:37;;;;;;;21.70;11.05;;;;;;;5.61;70.37;93378.63;2058082;69;20350;-73
2022/12/31 06:14:02;;;;;;;19.15;8.57;;;;;;;5.73;70.05;93393.69;2058077;69;20572;-74
2022/12/31 06:16:28;;;;;;;13.80;7.32;;;;;;;5.75;69.63;93396.66;2058101;69;20149;-73
2022/12/31 06:18:54;;;;;;;15.77;7.80;;;;;;;5.53;70.48;93398.19;2058014;69;20145;-73
2022/12/31 06:21:20;;;;;;;14.50;7.90;;;;;;;5.50;69.64;93404.91;2057907;69;20173;-75
2022/12/31 06:23:47;;;;;;;16.13;6.57;;;;;;;5.49;70.24;93399.88;2058013;69;20145;-75
2022/12/31 06:26:12;;;;;;;8.38;4.43;;;;;;;5.30;71.95;93397.47;2057855;69;20145;-74
2022/12/31 06:28:38;;;;;;;7.85;2.90;;;;;;;5.50;71.36;93396.53;2057999;69;20141;-77
2022/12/31 06:31:07;;;;;;;45.58;19.63;;;;;;;5.32;71.87;93401.22;2058107;69;20169;-75
2022/12/31 06:33:33;;;;;;;41.97;18.52;;;;;;;5.44;70.39;93398.03;2058026;69;20604;-73
2022/12/31 06:36:01;;;;;;;35.47;14.60;;;;;;;5.29;71.28;93402.31;2057397;69;20157;-73
2022/12/31 06:38:29;;;;;;;34.40;15.23;;;;;;;5.41;70.28;93404.75;2057362;69;20233;-73
2022/12/31 06:40:55;;;;;;;30.55;13.18;;;;;;;5.43;69.53;93414.03;2057802;69;20141;-72
2022/12/31 06:43:22;;;;;;;27.17;11.75;;;;;;;5.49;69.65;93406.19;2057946;69;20303;-73
2022/12/31 06:45:48;;;;;;;19.00;8.63;;;;;;;5.48;69.64;93407.50;2058156;69;20157;-73
2022/12/31 06:48:14;;;;;;;20.52;9.25;;;;;;;5.29;70.96;93407.16;2057955;69;20165;-74
2022/12/31 06:50:40;;;;;;;37.30;21.05;;;;;;;5.34;70.92;93412.56;2057971;69;20153;-73
2022/12/31 06:53:06;;;;;;;25.38;13.80;;;;;;;5.37;70.97;93410.69;2058240;69;20504;-73
2022/12/31 06:55:32;;;;;;;25.80;14.35;;;;;;;5.42;70.51;93417.41;2057879;69;20169;-77
2022/12/31 06:57:58;;;;;;;24.92;13.70;;;;;;;5.48;69.72;93420.72;2057934;69;20145;-75
2022/12/31 07:00:24;;;;;;;21.20;12.45;;;;;;;5.55;69.65;93411.59;2057973;69;20575;-74
2022/12/31 07:03:15;;;;;;;19.92;11.70;;;;;;;5.38;71.23;93417.75;2058036;69;20150;-74
2022/12/31 07:06:07;;;;;;;22.13;11.70;;;;;;;5.39;70.60;93410.13;2057990;69;20184;-78
2022/12/31 07:08:50;;;;;;;24.27;12.98;;;;;;;5.44;70.27;93417.56;2058055;69;20141;-75
2022/12/31 07:11:18;;;;;;;25.67;13.35;;;;;;;5.40;70.23;93431.16;2057919;69;20177;-75
2022/12/31 07:13:46;;;;;;;24.02;13.07;;;;;;;5.41;70.03;93436.19;2057923;69;20162;-78
2022/12/31 07:16:28;;;;;;;17.98;9.93;;;;;;;5.58;70.01;93444.00;2058116;69;20581;-78
2022/12/31 07:19:15;;;;;;;9.10;5.47;;;;;;;5.69;71.12;93442.88;2058262;69;20142;-76
2022/12/31 07:21:43;;;;;;;25.35;14.93;;;;;;;5.52;70.89;93443.44;2059877;69;20142;-73
2022/12/31 07:24:10;;;;;;;24.95;13.70;;;;;;;5.32;71.44;93443.09;2061827;69;20161;-74
2022/12/31 07:26:58;;;;;;;23.23;12.48;;;;;;;5.44;71.33;93443.44;2061966;69;20207;-77
2022/12/31 07:29:36;;;;;;;24.20;13.07;;;;;;;5.55;71.25;93433.94;2059618;69;20174;-75
2022/12/31 07:32:29;;;;;;;21.02;12.10;;;;;;;5.69;71.05;93452.00;2059235;69;20248;-78
2022/12/31 07:35:38;;;;;;;15.70;8.82;;;;;;;5.79;70.84;93440.97;2058464;69;20229;-75
2022/12/31 07:38:16;;;;;;;23.10;11.98;;;;;;;5.27;72.17;93458.00;2058155;69;20233;-77
2022/12/31 07:40:51;;;;;;;20.40;10.55;;;;;;;5.62;71.06;93461.13;2057390;69;20184;-79
2022/12/31 07:43:29;;;;;;;20.77;10.63;;;;;;;5.72;70.46;93467.63;2057979;69;20236;-74
2022/12/31 07:46:21;;;;;;;14.68;8.35;;;;;;;5.81;70.70;93460.72;2058234;69;20169;-79
2022/12/31 07:48:47;;;;;;;13.63;7.03;;;;;;;5.91;70.85;93461.66;2058076;69;20612;-75
2022/12/31 07:51:13;;;;;;;12.65;6.50;;;;;;;5.91;71.34;93460.88;2058176;69;20251;-77
2022/12/31 07:53:39;;;;;;;13.88;7.65;;;;;;;5.96;70.29;93460.72;2058013;69;20169;-76
2022/12/31 07:56:07;;;;;;;28.83;14.43;;;;;;;5.86;70.27;93463.34;2057307;69;20591;-75
2022/12/31 07:58:38;;;;;;;21.55;11.77;;;;;;;6.00;69.91;93472.28;2058009;69;20145;-79
2022/12/31 08:01:07;;;;;;;24.10;8.88;;;;;;;5.99;70.44;93465.19;2057951;69;20216;-75
2022/12/31 08:04:06;;;;;;;17.58;8.98;;;;;;;5.77;70.89;93477.88;2057984;69;20161;-74
2022/12/31 08:06:34;;;;;;;29.27;13.57;;;;;;;6.02;70.26;93494.81;2057887;69;20144;-75
2022/12/31 08:09:23;;;;;;;28.08;13.60;;;;;;;6.00;70.38;93500.22;2057738;69;20212;-74
2022/12/31 08:11:53;;;;;;;22.20;11.82;;;;;;;6.22;70.05;93512.66;2057992;69;20166;-75
2022/12/31 08:14:19;;;;;;;15.38;9.00;;;;;;;6.36;69.51;93505.50;2057977;69;20216;-75
2022/12/31 08:16:45;;;;;;;22.67;12.07;;;;;;;6.31;69.93;93508.53;2058166;69;20141;-75
2022/12/31 08:19:32;;;;;;;24.38;11.10;;;;;;;6.38;69.65;93515.41;2057807;69;20181;-74
2022/12/31 08:22:17;;;;;;;16.63;9.70;;;;;;;6.01;71.34;93523.34;2057725;69;20153;-75
2022/12/31 08:24:52;;;;;;;19.50;11.45;;;;;;;6.36;70.51;93513.91;2057417;69;20134;-73
2022/12/31 08:27:41;;;;;;;22.77;13.40;;;;;;;5.65;71.71;93512.34;2057733;69;20619;-72
2022/12/31 08:30:10;;;;;;;23.90;13.27;;;;;;;6.08;70.68;93512.13;2057242;69;20148;-73
2022/12/31 08:32:45;;;;;;;24.27;14.55;;;;;;;6.20;70.72;93517.31;2057773;69;20173;-73
2022/12/31 08:35:17;;;;;;;25.10;14.15;;;;;;;6.34;70.21;93510.94;2057898;69;20738;-73
2022/12/31 08:37:52;;;;;;;23.75;11.63;;;;;;;6.52;69.81;93503.44;2057852;69;20153;-73
2022/12/31 08:40:53;;;;;;;17.30;10.45;;;;;;;6.40;69.90;93507.94;2057700;69;20153;-74
2022/12/31 08:43:31;;;;;;;18.38;10.55;;;;;;;6.56;69.86;93512.19;2056610;69;20302;-74
2022/12/31 08:45:58;;;;;;;20.83;12.05;;;;;;;6.50;70.67;93514.41;2057750;69;20137;-81
2022/12/31 08:48:32;;;;;;;23.65;13.02;;;;;;;6.71;69.70;93497.38;2057697;69;20165;-73
2022/12/31 08:50:58;;;;;;;8.85;4.95;;;;;;;6.65;69.31;93498.91;2057727;69;20157;-73
2022/12/31 08:53:24;;;;;;;6.50;4.05;;;;;;;7.06;67.52;93508.78;2057269;69;20225;-73
2022/12/31 08:55:56;;;;;;;7.10;4.40;;;;;;;7.15;68.75;93491.34;2057528;69;20237;-73
2022/12/31 08:58:31;;;;;;;5.60;3.60;;;;;;;7.14;69.35;93501.78;2057711;69;20141;-74
2022/12/31 09:00:58;;;;;;;9.68;5.93;;;;;;;6.98;68.93;93502.47;2057817;69;20145;-74
2022/12/31 09:04:09;;;;;;;11.05;6.30;;;;;;;7.22;69.02;93512.94;2057649;69;20146;-73
2022/12/31 09:06:42;;;;;;;10.75;6.32;;;;;;;7.41;68.12;93539.72;2055666;69;20255;-73
2022/12/31 09:09:16;;;;;;;10.52;5.43;;;;;;;7.30;68.35;93530.47;2057845;69;20141;-73
2022/12/31 09:11:50;;;;;;;16.40;7.18;;;;;;;7.16;69.00;93518.03;2054581;69;20148;-73
2022/12/31 09:14:31;;;;;;;13.07;7.22;;;;;;;7.29;68.77;93503.78;2053799;70;20611;-74
2022/12/31 09:17:06;;;;;;;12.15;7.10;;;;;;;7.36;68.42;93502.97;2054489;69;20157;-73
2022/12/31 09:19:31;;;;;;;10.82;6.53;;;;;;;7.58;68.02;93512.53;2056530;69;20150;-73
2022/12/31 09:21:57;;;;;;;12.52;7.15;;;;;;;7.64;67.09;93526.28;2054341;69;20192;-73
2022/12/31 09:24:25;;;;;;;14.20;7.97;;;;;;;7.64;66.96;93524.22;2054250;69;20162;-73
2022/12/31 09:27:07;;;;;;;18.40;11.50;;;;;;;7.56;68.38;93506.75;2054352;70;20570;-74
2022/12/31 09:29:51;;;;;;;23.52;14.05;;;;;;;7.60;68.17;93520.34;2054416;69;20144;-74
2022/12/31 09:32:28;;;;;;;18.40;10.38;;;;;;;7.59;67.98;93507.66;2054334;69;20672;-74
2022/12/31 09:35:02;;;;;;;15.25;9.25;;;;;;;7.97;67.21;93504.53;2054231;69;20173;-74
2022/12/31 09:37:34;;;;;;;19.33;12.27;;;;;;;7.84;67.41;93504.84;2054188;69;20158;-73
2022/12/31 09:40:15;;;;;;;21.55;12.02;;;;;;;8.17;66.97;93493.50;2054245;69;20308;-75
2022/12/31 09:43:02;;;;;;;12.43;7.63;;;;;;;8.27;65.30;93486.66;2054193;69;20146;-74
2022/12/31 09:46:06;;;;;;;14.75;9.13;;;;;;;7.93;66.84;93493.00;2054184;69;20134;-74
2022/12/31 09:49:13;;;;;;;15.30;9.35;;;;;;;8.32;67.02;93484.94;2054262;69;20150;-74
2022/12/31 09:51:58;;;;;;;17.35;9.40;;;;;;;8.36;66.83;93491.63;2053658;69;20166;-75
2022/12/31 09:54:54;;;;;;;17.45;9.35;;;;;;;8.48;66.57;93480.66;2054210;70;20153;-75
2022/12/31 09:57:34;;;;;;;15.52;9.55;;;;;;;8.66;65.90;93489.81;2054276;70;20168;-74
2022/12/31 10:00:52;;;;;;;15.07;9.00;;;;;;;9.52;66.29;93491.63;2054163;69;20277;-73
2022/12/31 10:03:35;;;;;;;14.52;9.48;;;;;;;9.83;64.52;93479.88;2050139;70;20234;-75
2022/12/31 10:06:07;;;;;;;16.38;9.93;;;;;;;9.68;63.39;93478.06;2050202;70;20625;-75
2022/12/31 10:08:45;;;;;;;15.15;9.20;;;;;;;10.00;63.41;93482.59;2050073;70;20134;-73
2022/12/31 10:11:28;;;;;;;13.68;8.88;;;;;;;10.11;62.74;93476.41;2050069;70;20143;-79
2022/12/31 10:14:18;;;;;;;13.55;9.00;;;;;;;10.08;62.39;93474.78;2050044;70;20645;-75
2022/12/31 10:16:52;;;;;;;17.42;11.52;;;;;;;9.66;62.36;93475.84;2050119;70;20143;-74
2022/12/31 10:19:54;;;;;;;19.75;12.30;;;;;;;10.61;62.33;93470.25;2050001;70;20216;-76
2022/12/31 10:22:41;;;;;;;20.65;11.32;;;;;;;10.81;60.68;93479.44;2048577;70;20190;-74
2022/12/31 10:26:04;;;;;;;17.58;10.18;;;;;;;11.14;60.07;93470.47;2049866;70;20150;-77
2022/12/31 10:29:07;;;;;;;16.00;9.87;;;;;;;12.01;59.96;93449.69;2040117;70;20624;-73
2022/12/31 10:31:45;;;;;;;17.20;9.82;;;;;;;12.52;56.70;93450.97;2040165;70;20185;-75
2022/12/31 10:34:15;;;;;;;15.05;9.05;;;;;;;13.24;56.17;93442.16;2049247;70;20138;-76
2022/12/31 10:37:05;;;;;;;7.97;5.22;;;;;;;13.94;52.86;93441.47;2049942;70;20153;-74
2022/12/31 10:39:49;;;;;;;18.63;10.63;;;;;;;13.43;52.92;93441.19;2052222;70;20169;-73
2022/12/31 10:42:30;;;;;;;29.55;18.67;;;;;;;14.46;52.19;93435.31;2054200;69;20181;-75
2022/12/31 10:45:33;;;;;;;19.27;12.00;;;;;;;14.70;49.22;93436.00;2054098;69;20146;-74
2022/12/31 10:48:18;;;;;;;11.23;7.03;;;;;;;14.39;48.68;93446.94;2054280;69;20249;-73
2022/12/31 10:51:09;;;;;;;9.90;7.15;;;;;;;15.47;48.91;93436.75;2054535;69;20157;-72
2022/12/31 10:54:05;;;;;;;12.45;8.57;;;;;;;17.54;44.66;93434.41;2054705;69;20565;-74
2022/12/31 10:56:59;;;;;;;11.90;7.70;;;;;;;16.10;45.44;93453.59;2054882;69;20161;-74
2022/12/31 10:59:40;;;;;;;13.27;7.38;;;;;;;18.44;43.86;93451.97;2054629;69;20146;-75
2022/12/31 11:02:31;;;;;;;14.32;9.27;;;;;;;17.51;41.66;93452.06;2054708;69;20174;-76
2022/12/31 11:05:21;;;;;;;12.65;8.30;;;;;;;19.70;39.58;93439.34;2052545;69;20188;-74
2022/12/31 11:08:05;;;;;;;10.38;6.47;;;;;;;20.87;37.75;93439.34;2054622;69;20295;-74
2022/12/31 11:10:53;;;;;;;13.63;9.60;;;;;;;19.28;38.72;93453.38;2054736;69;20153;-73
2022/12/31 11:13:38;;;;;;;11.43;8.20;;;;;;;20.27;38.18;93430.03;2054781;69;20259;-75
2022/12/31 11:16:23;;;;;;;7.55;4.72;;;;;;;18.21;38.66;93418.91;2054810;70;20138;-77
2022/12/31 11:18:51;;;;;;;11.55;8.38;;;;;;;14.90;45.02;93425.09;2054517;69;20137;-77
2022/12/31 11:21:49;;;;;;;11.07;7.90;;;;;;;16.04;43.82;93404.28;2054740;69;20559;-74
2022/12/31 11:24:36;;;;;;;8.85;5.43;;;;;;;15.27;44.00;93415.78;2054535;69;20218;-75
2022/12/31 11:27:23;;;;;;;10.38;7.63;;;;;;;15.43;45.61;93408.16;2057217;69;20156;-74
2022/12/31 11:30:22;;;;;;;10.70;6.88;;;;;;;15.03;45.21;93395.34;2056762;69;20165;-75
2022/12/31 11:33:20;;;;;;;23.08;13.57;;;;;;;14.21;47.55;93409.78;2057927;69;20146;-73
2022/12/31 11:35:45;;;;;;;20.40;12.55;;;;;;;14.50;47.88;93403.69;2049600;70;20154;-74
2022/12/31 11:38:26;;;;;;;23.27;13.90;;;;;;;13.82;47.64;93395.44;2050110;70;20194;-73
2022/12/31 11:41:21;;;;;;;24.58;14.95;;;;;;;13.75;48.72;93387.94;2048456;70;20246;-72
2022/12/31 11:43:59;;;;;;;24.02;14.98;;;;;;;13.86;48.74;93382.25;2049054;70;20265;-72
2022/12/31 11:46:48;;;;;;;27.63;15.55;;;;;;;13.59;49.23;93399.00;2049802;70;20142;-72
2022/12/31 11:49:34;;;;;;;24.02;13.93;;;;;;;13.49;49.97;93396.31;2050407;70;20582;-73
2022/12/31 11:52:12;;;;;;;20.30;12.10;;;;;;;13.53;49.62;93393.72;2047930;70;20229;-71
2022/12/31 11:54:56;;;;;;;16.92;10.60;;;;;;;13.71;48.96;93391.28;2049418;70;20332;-74
2022/12/31 11:57:35;;;;;;;15.23;9.57;;;;;;;13.59;49.80;93390.53;2050242;70;20174;-72
2022/12/31 12:00:20;;;;;;;16.30;9.40;;;;;;;13.50;50.29;93377.25;2050176;70;20164;-74
2022/12/31 12:02:52;;;;;;;9.20;4.70;;;;;;;13.44;49.76;93366.31;2050625;70;20142;-72
2022/12/31 12:05:21;;;;;;;19.55;12.77;;;;;;;12.82;51.41;93361.03;2049686;70;20147;-74
2022/12/31 12:07:48;;;;;;;19.63;11.35;;;;;;;12.44;52.92;93360.78;2049737;70;20146;-73
2022/12/31 12:10:26;;;;;;;21.23;11.73;;;;;;;12.67;51.85;93351.66;2050172;70;20154;-72
2022/12/31 12:12:54;;;;;;;22.67;13.13;;;;;;;12.70;52.11;93366.66;2056422;69;20141;-72
2022/12/31 12:15:27;;;;;;;19.83;11.70;;;;;;;12.84;51.39;93364.72;2057533;69;20257;-72
2022/12/31 12:17:58;;;;;;;21.00;13.63;;;;;;;12.93;51.41;93363.16;2056705;69;20233;-75
2022/12/31 12:20:30;;;;;;;59.58;36.45;;;;;;;12.93;51.31;93372.38;2057256;69;20260;-73